sensor_id;sensor_type;location;lat;lon;timestamp;P1;durP1;ratioP1;P2;durP2;ratioP2
12675;SDS011;63820;65.654;21.944;2022-10-16T00:02:15;4.83;;;4.17;;
12675;SDS011;63820;65.654;21.944;2022-10-16T00:04:59;6.47;;;4.13;;
12675;SDS011;63820;65.654;21.944;2022-10-16T00:07:43;7.37;;;4.87;;
12675;SDS011;63820;65.654;21.944;2022-10-16T00:10:28;5.93;;;5.17;;
12675;SDS011;63820;65.654;21.944;2022-10-16T00:13:12;6.77;;;5.30;;
12675;SDS011;63820;65.654;21.944;2022-10-16T00:15:57;7.43;;;5.03;;
12675;SDS011;63820;65.654;21.944;2022-10-16T00:18:42;8.03;;;5.10;;
12675;SDS011;63820;65.654;21.944;2022-10-16T00:21:27;7.00;;;4.83;;
12675;SDS011;63820;65.654;21.944;2022-10-16T00:24:12;8.30;;;5.27;;
12675;SDS011;63820;65.654;21.944;2022-10-16T00:26:56;7.83;;;5.43;;
12675;SDS011;63820;65.654;21.944;2022-10-16T00:29:40;8.17;;;5.07;;
12675;SDS011;63820;65.654;21.944;2022-10-16T00:32:24;6.20;;;5.00;;
12675;SDS011;63820;65.654;21.944;2022-10-16T00:35:08;6.60;;;5.60;;
12675;SDS011;63820;65.654;21.944;2022-10-16T00:37:52;8.07;;;5.20;;
12675;SDS011;63820;65.654;21.944;2022-10-16T00:40:36;8.07;;;5.13;;
12675;SDS011;63820;65.654;21.944;2022-10-16T00:49:22;6.73;;;5.20;;
12675;SDS011;63820;65.654;21.944;2022-10-16T00:52:06;8.07;;;5.53;;
12675;SDS011;63820;65.654;21.944;2022-10-16T00:54:51;7.90;;;5.40;;
12675;SDS011;63820;65.654;21.944;2022-10-16T00:57:37;9.30;;;5.60;;
12675;SDS011;63820;65.654;21.944;2022-10-16T01:00:22;7.83;;;5.60;;
12675;SDS011;63820;65.654;21.944;2022-10-16T01:03:22;5.93;;;4.60;;
12675;SDS011;63820;65.654;21.944;2022-10-16T01:12:54;6.77;;;4.73;;
12675;SDS011;63820;65.654;21.944;2022-10-16T01:18:43;6.50;;;4.47;;
12675;SDS011;63820;65.654;21.944;2022-10-16T01:21:35;8.10;;;4.57;;
12675;SDS011;63820;65.654;21.944;2022-10-16T01:24:37;5.47;;;3.93;;
12675;SDS011;63820;65.654;21.944;2022-10-16T01:27:30;7.17;;;4.13;;
12675;SDS011;63820;65.654;21.944;2022-10-16T01:30:23;5.57;;;4.10;;
12675;SDS011;63820;65.654;21.944;2022-10-16T01:33:16;6.53;;;4.10;;
12675;SDS011;63820;65.654;21.944;2022-10-16T01:36:10;7.33;;;4.13;;
12675;SDS011;63820;65.654;21.944;2022-10-16T01:38:59;4.20;;;3.60;;
12675;SDS011;63820;65.654;21.944;2022-10-16T01:41:46;5.90;;;3.90;;
12675;SDS011;63820;65.654;21.944;2022-10-16T01:44:35;7.60;;;3.63;;
12675;SDS011;63820;65.654;21.944;2022-10-16T01:47:22;4.70;;;3.53;;
12675;SDS011;63820;65.654;21.944;2022-10-16T01:50:09;3.97;;;3.20;;
12675;SDS011;63820;65.654;21.944;2022-10-16T01:52:55;4.50;;;3.53;;
12675;SDS011;63820;65.654;21.944;2022-10-16T01:55:43;5.40;;;3.57;;
12675;SDS011;63820;65.654;21.944;2022-10-16T01:58:29;6.43;;;3.50;;
12675;SDS011;63820;65.654;21.944;2022-10-16T02:01:19;5.47;;;3.23;;
12675;SDS011;63820;65.654;21.944;2022-10-16T02:04:40;4.53;;;2.43;;
12675;SDS011;63820;65.654;21.944;2022-10-16T02:07:20;3.87;;;2.63;;
12675;SDS011;63820;65.654;21.944;2022-10-16T02:10:04;3.17;;;2.13;;
12675;SDS011;63820;65.654;21.944;2022-10-16T02:12:50;2.90;;;2.53;;
12675;SDS011;63820;65.654;21.944;2022-10-16T02:15:41;3.67;;;2.20;;
12675;SDS011;63820;65.654;21.944;2022-10-16T02:18:25;2.87;;;2.53;;
12675;SDS011;63820;65.654;21.944;2022-10-16T02:21:20;3.77;;;2.73;;
12675;SDS011;63820;65.654;21.944;2022-10-16T02:29:59;3.93;;;2.50;;
12675;SDS011;63820;65.654;21.944;2022-10-16T02:32:51;2.90;;;2.00;;
12675;SDS011;63820;65.654;21.944;2022-10-16T02:35:37;4.93;;;2.10;;
12675;SDS011;63820;65.654;21.944;2022-10-16T02:38:22;4.00;;;2.03;;
12675;SDS011;63820;65.654;21.944;2022-10-16T02:41:08;4.77;;;1.93;;
12675;SDS011;63820;65.654;21.944;2022-10-16T02:43:53;3.40;;;2.00;;
12675;SDS011;63820;65.654;21.944;2022-10-16T02:46:38;2.43;;;1.77;;
12675;SDS011;63820;65.654;21.944;2022-10-16T02:49:22;2.80;;;1.80;;
12675;SDS011;63820;65.654;21.944;2022-10-16T02:52:06;1.93;;;1.53;;
12675;SDS011;63820;65.654;21.944;2022-10-16T02:54:50;2.73;;;1.90;;
12675;SDS011;63820;65.654;21.944;2022-10-16T02:57:35;3.40;;;1.83;;
12675;SDS011;63820;65.654;21.944;2022-10-16T03:00:20;1.90;;;1.70;;
12675;SDS011;63820;65.654;21.944;2022-10-16T03:03:05;2.63;;;1.37;;
12675;SDS011;63820;65.654;21.944;2022-10-16T03:05:50;3.30;;;1.40;;
12675;SDS011;63820;65.654;21.944;2022-10-16T03:08:34;2.07;;;1.47;;
12675;SDS011;63820;65.654;21.944;2022-10-16T03:11:18;2.97;;;1.67;;
12675;SDS011;63820;65.654;21.944;2022-10-16T03:14:01;3.20;;;1.77;;
12675;SDS011;63820;65.654;21.944;2022-10-16T03:16:45;3.40;;;1.60;;
12675;SDS011;63820;65.654;21.944;2022-10-16T03:19:29;3.97;;;1.60;;
12675;SDS011;63820;65.654;21.944;2022-10-16T03:22:13;2.20;;;1.70;;
12675;SDS011;63820;65.654;21.944;2022-10-16T03:24:57;3.13;;;1.70;;
12675;SDS011;63820;65.654;21.944;2022-10-16T03:27:41;2.37;;;1.80;;
12675;SDS011;63820;65.654;21.944;2022-10-16T03:30:26;3.37;;;2.07;;
12675;SDS011;63820;65.654;21.944;2022-10-16T03:33:10;2.63;;;1.80;;
12675;SDS011;63820;65.654;21.944;2022-10-16T03:35:55;4.63;;;2.30;;
12675;SDS011;63820;65.654;21.944;2022-10-16T03:38:39;3.60;;;2.20;;
12675;SDS011;63820;65.654;21.944;2022-10-16T03:41:23;3.43;;;1.73;;
12675;SDS011;63820;65.654;21.944;2022-10-16T03:44:07;6.47;;;2.07;;
12675;SDS011;63820;65.654;21.944;2022-10-16T03:46:51;4.43;;;2.10;;
12675;SDS011;63820;65.654;21.944;2022-10-16T03:49:35;3.67;;;1.73;;
12675;SDS011;63820;65.654;21.944;2022-10-16T03:52:19;3.83;;;1.90;;
12675;SDS011;63820;65.654;21.944;2022-10-16T03:55:03;3.63;;;1.83;;
12675;SDS011;63820;65.654;21.944;2022-10-16T03:57:47;3.03;;;1.90;;
12675;SDS011;63820;65.654;21.944;2022-10-16T04:00:31;2.10;;;1.70;;
12675;SDS011;63820;65.654;21.944;2022-10-16T04:03:15;3.43;;;2.20;;
12675;SDS011;63820;65.654;21.944;2022-10-16T04:06:00;4.03;;;2.10;;
12675;SDS011;63820;65.654;21.944;2022-10-16T04:08:45;3.77;;;1.80;;
12675;SDS011;63820;65.654;21.944;2022-10-16T04:11:29;3.93;;;1.80;;
12675;SDS011;63820;65.654;21.944;2022-10-16T04:14:13;3.10;;;1.60;;
12675;SDS011;63820;65.654;21.944;2022-10-16T04:16:57;2.70;;;1.40;;
12675;SDS011;63820;65.654;21.944;2022-10-16T04:19:41;4.17;;;2.10;;
12675;SDS011;63820;65.654;21.944;2022-10-16T04:22:25;2.63;;;1.73;;
12675;SDS011;63820;65.654;21.944;2022-10-16T04:25:08;3.10;;;1.50;;
12675;SDS011;63820;65.654;21.944;2022-10-16T04:27:53;2.10;;;1.57;;
12675;SDS011;63820;65.654;21.944;2022-10-16T04:30:38;3.10;;;1.40;;
12675;SDS011;63820;65.654;21.944;2022-10-16T04:33:22;1.80;;;1.40;;
12675;SDS011;63820;65.654;21.944;2022-10-16T04:36:06;5.17;;;1.73;;
12675;SDS011;63820;65.654;21.944;2022-10-16T04:38:50;3.90;;;1.40;;
12675;SDS011;63820;65.654;21.944;2022-10-16T04:41:34;3.47;;;1.40;;
12675;SDS011;63820;65.654;21.944;2022-10-16T04:44:18;3.67;;;1.57;;
12675;SDS011;63820;65.654;21.944;2022-10-16T04:47:02;4.50;;;1.60;;
12675;SDS011;63820;65.654;21.944;2022-10-16T04:49:46;3.20;;;1.40;;
12675;SDS011;63820;65.654;21.944;2022-10-16T04:52:30;3.93;;;1.43;;
12675;SDS011;63820;65.654;21.944;2022-10-16T04:55:15;2.27;;;1.47;;
12675;SDS011;63820;65.654;21.944;2022-10-16T04:57:59;3.90;;;1.47;;
12675;SDS011;63820;65.654;21.944;2022-10-16T05:00:44;2.30;;;1.47;;
12675;SDS011;63820;65.654;21.944;2022-10-16T05:03:28;2.70;;;1.47;;
12675;SDS011;63820;65.654;21.944;2022-10-16T05:06:12;3.10;;;1.17;;
12675;SDS011;63820;65.654;21.944;2022-10-16T05:08:56;3.00;;;1.30;;
12675;SDS011;63820;65.654;21.944;2022-10-16T05:11:40;1.80;;;1.00;;
12675;SDS011;63820;65.654;21.944;2022-10-16T05:14:24;1.50;;;1.00;;
12675;SDS011;63820;65.654;21.944;2022-10-16T05:17:08;1.63;;;1.00;;
12675;SDS011;63820;65.654;21.944;2022-10-16T05:19:53;2.20;;;1.10;;
12675;SDS011;63820;65.654;21.944;2022-10-16T05:22:37;1.13;;;0.83;;
12675;SDS011;63820;65.654;21.944;2022-10-16T05:25:21;1.23;;;0.70;;
12675;SDS011;63820;65.654;21.944;2022-10-16T05:28:05;1.57;;;0.90;;
12675;SDS011;63820;65.654;21.944;2022-10-16T05:30:49;2.37;;;0.97;;
12675;SDS011;63820;65.654;21.944;2022-10-16T05:33:34;0.77;;;0.77;;
12675;SDS011;63820;65.654;21.944;2022-10-16T05:36:18;1.90;;;0.90;;
12675;SDS011;63820;65.654;21.944;2022-10-16T05:39:02;4.30;;;1.30;;
12675;SDS011;63820;65.654;21.944;2022-10-16T05:41:49;1.40;;;1.00;;
12675;SDS011;63820;65.654;21.944;2022-10-16T05:44:33;3.70;;;0.90;;
12675;SDS011;63820;65.654;21.944;2022-10-16T05:47:17;1.33;;;1.10;;
12675;SDS011;63820;65.654;21.944;2022-10-16T05:50:01;3.23;;;1.00;;
12675;SDS011;63820;65.654;21.944;2022-10-16T05:52:45;1.43;;;1.00;;
12675;SDS011;63820;65.654;21.944;2022-10-16T05:55:29;4.60;;;1.50;;
12675;SDS011;63820;65.654;21.944;2022-10-16T05:58:13;1.90;;;1.13;;
12675;SDS011;63820;65.654;21.944;2022-10-16T06:01:01;1.87;;;1.20;;
12675;SDS011;63820;65.654;21.944;2022-10-16T06:03:51;2.00;;;1.23;;
12675;SDS011;63820;65.654;21.944;2022-10-16T06:06:36;1.63;;;0.93;;
12675;SDS011;63820;65.654;21.944;2022-10-16T06:09:20;1.93;;;1.10;;
12675;SDS011;63820;65.654;21.944;2022-10-16T06:12:03;1.67;;;1.03;;
12675;SDS011;63820;65.654;21.944;2022-10-16T06:14:48;1.50;;;1.00;;
12675;SDS011;63820;65.654;21.944;2022-10-16T06:17:32;1.37;;;0.90;;
12675;SDS011;63820;65.654;21.944;2022-10-16T06:20:16;1.50;;;0.80;;
12675;SDS011;63820;65.654;21.944;2022-10-16T06:23:00;1.00;;;0.83;;
12675;SDS011;63820;65.654;21.944;2022-10-16T06:25:44;1.47;;;1.20;;
12675;SDS011;63820;65.654;21.944;2022-10-16T06:28:29;2.03;;;0.80;;
12675;SDS011;63820;65.654;21.944;2022-10-16T06:31:13;1.33;;;0.80;;
12675;SDS011;63820;65.654;21.944;2022-10-16T06:33:58;2.83;;;0.90;;
12675;SDS011;63820;65.654;21.944;2022-10-16T06:36:43;2.27;;;1.00;;
12675;SDS011;63820;65.654;21.944;2022-10-16T06:39:27;1.57;;;1.30;;
12675;SDS011;63820;65.654;21.944;2022-10-16T06:42:11;1.37;;;1.23;;
12675;SDS011;63820;65.654;21.944;2022-10-16T06:44:55;1.50;;;1.13;;
12675;SDS011;63820;65.654;21.944;2022-10-16T06:47:39;3.23;;;1.63;;
12675;SDS011;63820;65.654;21.944;2022-10-16T06:50:23;2.27;;;1.40;;
12675;SDS011;63820;65.654;21.944;2022-10-16T06:53:07;2.80;;;2.43;;
12675;SDS011;63820;65.654;21.944;2022-10-16T06:55:51;3.80;;;2.57;;
12675;SDS011;63820;65.654;21.944;2022-10-16T06:58:35;3.73;;;2.30;;
12675;SDS011;63820;65.654;21.944;2022-10-16T07:01:21;2.67;;;2.10;;
12675;SDS011;63820;65.654;21.944;2022-10-16T07:04:06;3.20;;;1.37;;
12675;SDS011;63820;65.654;21.944;2022-10-16T07:06:50;1.80;;;1.70;;
12675;SDS011;63820;65.654;21.944;2022-10-16T07:09:35;1.50;;;1.40;;
12675;SDS011;63820;65.654;21.944;2022-10-16T07:12:19;3.00;;;1.80;;
12675;SDS011;63820;65.654;21.944;2022-10-16T07:15:03;1.30;;;1.20;;
12675;SDS011;63820;65.654;21.944;2022-10-16T07:17:48;1.50;;;1.37;;
12675;SDS011;63820;65.654;21.944;2022-10-16T07:20:32;1.80;;;0.97;;
12675;SDS011;63820;65.654;21.944;2022-10-16T07:23:17;1.20;;;0.87;;
12675;SDS011;63820;65.654;21.944;2022-10-16T07:26:00;1.80;;;0.90;;
12675;SDS011;63820;65.654;21.944;2022-10-16T07:28:45;2.40;;;1.00;;
12675;SDS011;63820;65.654;21.944;2022-10-16T07:31:29;1.57;;;0.80;;
12675;SDS011;63820;65.654;21.944;2022-10-16T07:34:15;1.80;;;0.80;;
12675;SDS011;63820;65.654;21.944;2022-10-16T07:37:00;1.00;;;0.83;;
12675;SDS011;63820;65.654;21.944;2022-10-16T07:39:44;1.13;;;0.80;;
12675;SDS011;63820;65.654;21.944;2022-10-16T07:42:28;3.50;;;1.30;;
12675;SDS011;63820;65.654;21.944;2022-10-16T07:45:12;5.10;;;4.17;;
12675;SDS011;63820;65.654;21.944;2022-10-16T07:47:57;4.33;;;3.93;;
12675;SDS011;63820;65.654;21.944;2022-10-16T07:50:41;3.10;;;2.80;;
12675;SDS011;63820;65.654;21.944;2022-10-16T07:53:25;1.77;;;1.40;;
12675;SDS011;63820;65.654;21.944;2022-10-16T07:56:10;2.10;;;1.20;;
12675;SDS011;63820;65.654;21.944;2022-10-16T07:58:55;1.60;;;1.30;;
12675;SDS011;63820;65.654;21.944;2022-10-16T08:01:40;2.97;;;1.50;;
12675;SDS011;63820;65.654;21.944;2022-10-16T08:04:25;2.30;;;1.37;;
12675;SDS011;63820;65.654;21.944;2022-10-16T08:07:09;5.30;;;1.33;;
12675;SDS011;63820;65.654;21.944;2022-10-16T08:09:53;2.77;;;2.07;;
12675;SDS011;63820;65.654;21.944;2022-10-16T08:12:40;2.10;;;1.80;;
12675;SDS011;63820;65.654;21.944;2022-10-16T08:15:24;1.40;;;1.20;;
12675;SDS011;63820;65.654;21.944;2022-10-16T08:18:09;1.37;;;1.00;;
12675;SDS011;63820;65.654;21.944;2022-10-16T08:20:57;1.10;;;1.00;;
12675;SDS011;63820;65.654;21.944;2022-10-16T08:23:43;1.63;;;0.90;;
12675;SDS011;63820;65.654;21.944;2022-10-16T08:26:30;1.73;;;0.90;;
12675;SDS011;63820;65.654;21.944;2022-10-16T08:29:14;0.87;;;0.80;;
12675;SDS011;63820;65.654;21.944;2022-10-16T08:31:58;1.50;;;1.40;;
12675;SDS011;63820;65.654;21.944;2022-10-16T08:34:42;0.90;;;0.73;;
12675;SDS011;63820;65.654;21.944;2022-10-16T08:37:29;1.40;;;0.80;;
12675;SDS011;63820;65.654;21.944;2022-10-16T08:40:20;0.87;;;0.70;;
12675;SDS011;63820;65.654;21.944;2022-10-16T08:48:54;1.30;;;0.83;;
12675;SDS011;63820;65.654;21.944;2022-10-16T08:51:43;0.90;;;0.80;;
12675;SDS011;63820;65.654;21.944;2022-10-16T08:54:34;1.27;;;0.93;;
12675;SDS011;63820;65.654;21.944;2022-10-16T08:57:25;0.70;;;0.70;;
12675;SDS011;63820;65.654;21.944;2022-10-16T09:00:13;0.83;;;0.63;;
12675;SDS011;63820;65.654;21.944;2022-10-16T09:12:04;1.67;;;0.80;;
12675;SDS011;63820;65.654;21.944;2022-10-16T09:14:56;1.50;;;0.60;;
12675;SDS011;63820;65.654;21.944;2022-10-16T09:17:51;1.57;;;0.70;;
12675;SDS011;63820;65.654;21.944;2022-10-16T09:20:53;1.43;;;0.70;;
12675;SDS011;63820;65.654;21.944;2022-10-16T09:23:40;0.80;;;0.50;;
12675;SDS011;63820;65.654;21.944;2022-10-16T09:26:24;0.80;;;0.60;;
12675;SDS011;63820;65.654;21.944;2022-10-16T09:29:11;0.60;;;0.60;;
12675;SDS011;63820;65.654;21.944;2022-10-16T09:31:57;0.93;;;0.57;;
12675;SDS011;63820;65.654;21.944;2022-10-16T09:34:50;2.83;;;0.77;;
12675;SDS011;63820;65.654;21.944;2022-10-16T09:37:38;0.93;;;0.83;;
12675;SDS011;63820;65.654;21.944;2022-10-16T09:40:26;1.00;;;0.70;;
12675;SDS011;63820;65.654;21.944;2022-10-16T09:43:18;0.73;;;0.60;;
12675;SDS011;63820;65.654;21.944;2022-10-16T09:46:21;2.33;;;0.77;;
12675;SDS011;63820;65.654;21.944;2022-10-16T09:49:49;0.47;;;0.47;;
12675;SDS011;63820;65.654;21.944;2022-10-16T09:52:21;1.20;;;0.70;;
12675;SDS011;63820;65.654;21.944;2022-10-16T09:55:13;1.13;;;0.60;;
12675;SDS011;63820;65.654;21.944;2022-10-16T09:57:59;3.17;;;0.60;;
12675;SDS011;63820;65.654;21.944;2022-10-16T10:00:50;1.50;;;0.63;;
12675;SDS011;63820;65.654;21.944;2022-10-16T10:03:37;0.83;;;0.70;;
12675;SDS011;63820;65.654;21.944;2022-10-16T10:06:28;1.10;;;0.60;;
12675;SDS011;63820;65.654;21.944;2022-10-16T10:09:22;1.00;;;0.90;;
12675;SDS011;63820;65.654;21.944;2022-10-16T10:12:17;1.10;;;0.80;;
12675;SDS011;63820;65.654;21.944;2022-10-16T10:15:07;1.60;;;1.20;;
12675;SDS011;63820;65.654;21.944;2022-10-16T10:17:56;1.77;;;1.10;;
12675;SDS011;63820;65.654;21.944;2022-10-16T10:20:41;1.67;;;0.80;;
12675;SDS011;63820;65.654;21.944;2022-10-16T10:23:26;1.73;;;0.90;;
12675;SDS011;63820;65.654;21.944;2022-10-16T10:26:13;1.33;;;1.20;;
12675;SDS011;63820;65.654;21.944;2022-10-16T10:46:35;2.20;;;0.80;;
12675;SDS011;63820;65.654;21.944;2022-10-16T11:01:50;2.00;;;0.70;;
12675;SDS011;63820;65.654;21.944;2022-10-16T11:04:56;0.83;;;0.60;;
12675;SDS011;63820;65.654;21.944;2022-10-16T11:07:45;2.03;;;0.90;;
12675;SDS011;63820;65.654;21.944;2022-10-16T11:10:52;1.37;;;0.90;;
12675;SDS011;63820;65.654;21.944;2022-10-16T11:13:46;0.93;;;0.90;;
12675;SDS011;63820;65.654;21.944;2022-10-16T11:16:43;1.00;;;0.80;;
12675;SDS011;63820;65.654;21.944;2022-10-16T11:19:41;1.63;;;0.83;;
12675;SDS011;63820;65.654;21.944;2022-10-16T11:25:31;1.80;;;0.70;;
12675;SDS011;63820;65.654;21.944;2022-10-16T11:28:17;0.73;;;0.60;;
12675;SDS011;63820;65.654;21.944;2022-10-16T11:31:53;1.13;;;0.80;;
12675;SDS011;63820;65.654;21.944;2022-10-16T11:34:39;2.10;;;0.70;;
12675;SDS011;63820;65.654;21.944;2022-10-16T11:37:36;1.30;;;0.63;;
12675;SDS011;63820;65.654;21.944;2022-10-16T11:40:28;3.73;;;1.60;;
12675;SDS011;63820;65.654;21.944;2022-10-16T11:43:24;5.93;;;2.97;;
12675;SDS011;63820;65.654;21.944;2022-10-16T11:46:17;1.13;;;0.70;;
12675;SDS011;63820;65.654;21.944;2022-10-16T11:49:11;2.50;;;0.90;;
12675;SDS011;63820;65.654;21.944;2022-10-16T11:52:00;1.47;;;0.70;;
12675;SDS011;63820;65.654;21.944;2022-10-16T11:55:05;2.43;;;0.83;;
12675;SDS011;63820;65.654;21.944;2022-10-16T11:58:00;1.67;;;0.80;;
12675;SDS011;63820;65.654;21.944;2022-10-16T12:01:10;0.50;;;0.50;;
12675;SDS011;63820;65.654;21.944;2022-10-16T12:07:13;4.37;;;1.70;;
12675;SDS011;63820;65.654;21.944;2022-10-16T12:10:23;3.50;;;1.47;;
12675;SDS011;63820;65.654;21.944;2022-10-16T12:13:29;0.90;;;0.73;;
12675;SDS011;63820;65.654;21.944;2022-10-16T12:19:17;1.60;;;0.70;;
12675;SDS011;63820;65.654;21.944;2022-10-16T12:22:02;3.53;;;0.90;;
12675;SDS011;63820;65.654;21.944;2022-10-16T12:24:50;4.93;;;2.40;;
12675;SDS011;63820;65.654;21.944;2022-10-16T12:27:35;2.27;;;1.17;;
12675;SDS011;63820;65.654;21.944;2022-10-16T12:30:21;1.40;;;0.77;;
12675;SDS011;63820;65.654;21.944;2022-10-16T12:33:20;2.30;;;1.23;;
12675;SDS011;63820;65.654;21.944;2022-10-16T12:36:12;1.20;;;0.70;;
12675;SDS011;63820;65.654;21.944;2022-10-16T12:38:59;2.13;;;0.90;;
12675;SDS011;63820;65.654;21.944;2022-10-16T12:41:44;1.37;;;0.80;;
12675;SDS011;63820;65.654;21.944;2022-10-16T12:44:31;0.50;;;0.50;;
12675;SDS011;63820;65.654;21.944;2022-10-16T12:47:52;1.37;;;0.60;;
12675;SDS011;63820;65.654;21.944;2022-10-16T12:50:37;1.33;;;0.70;;
12675;SDS011;63820;65.654;21.944;2022-10-16T12:53:23;0.70;;;0.50;;
12675;SDS011;63820;65.654;21.944;2022-10-16T12:56:14;0.67;;;0.40;;
12675;SDS011;63820;65.654;21.944;2022-10-16T12:59:10;0.57;;;0.40;;
12675;SDS011;63820;65.654;21.944;2022-10-16T13:03:06;0.70;;;0.50;;
12675;SDS011;63820;65.654;21.944;2022-10-16T13:11:55;0.60;;;0.50;;
12675;SDS011;63820;65.654;21.944;2022-10-16T13:18:28;0.70;;;0.60;;
12675;SDS011;63820;65.654;21.944;2022-10-16T13:21:56;0.83;;;0.47;;
12675;SDS011;63820;65.654;21.944;2022-10-16T13:28:01;1.83;;;1.00;;
12675;SDS011;63820;65.654;21.944;2022-10-16T13:30:53;1.47;;;1.13;;
12675;SDS011;63820;65.654;21.944;2022-10-16T13:33:41;1.03;;;0.57;;
12675;SDS011;63820;65.654;21.944;2022-10-16T13:36:30;1.20;;;0.67;;
12675;SDS011;63820;65.654;21.944;2022-10-16T13:39:27;1.63;;;0.63;;
12675;SDS011;63820;65.654;21.944;2022-10-16T13:42:23;1.90;;;0.70;;
12675;SDS011;63820;65.654;21.944;2022-10-16T13:45:20;2.50;;;1.40;;
12675;SDS011;63820;65.654;21.944;2022-10-16T13:48:09;3.90;;;2.10;;
12675;SDS011;63820;65.654;21.944;2022-10-16T13:53:49;1.20;;;1.10;;
12675;SDS011;63820;65.654;21.944;2022-10-16T13:56:33;1.57;;;0.90;;
12675;SDS011;63820;65.654;21.944;2022-10-16T13:59:32;1.60;;;0.80;;
12675;SDS011;63820;65.654;21.944;2022-10-16T14:02:28;0.77;;;0.77;;
12675;SDS011;63820;65.654;21.944;2022-10-16T14:05:18;0.80;;;0.80;;
12675;SDS011;63820;65.654;21.944;2022-10-16T14:08:02;0.83;;;0.70;;
12675;SDS011;63820;65.654;21.944;2022-10-16T14:10:50;1.13;;;0.80;;
12675;SDS011;63820;65.654;21.944;2022-10-16T14:13:37;2.40;;;2.20;;
12675;SDS011;63820;65.654;21.944;2022-10-16T14:16:27;3.87;;;2.30;;
12675;SDS011;63820;65.654;21.944;2022-10-16T14:19:15;3.90;;;2.87;;
12675;SDS011;63820;65.654;21.944;2022-10-16T14:22:04;3.27;;;2.70;;
12675;SDS011;63820;65.654;21.944;2022-10-16T14:25:20;6.60;;;5.90;;
12675;SDS011;63820;65.654;21.944;2022-10-16T14:28:21;10.87;;;8.67;;
12675;SDS011;63820;65.654;21.944;2022-10-16T14:37:23;9.13;;;8.23;;
12675;SDS011;63820;65.654;21.944;2022-10-16T14:40:13;4.43;;;4.03;;
12675;SDS011;63820;65.654;21.944;2022-10-16T14:42:59;7.00;;;6.40;;
12675;SDS011;63820;65.654;21.944;2022-10-16T14:45:49;6.97;;;6.37;;
12675;SDS011;63820;65.654;21.944;2022-10-16T14:48:36;4.17;;;3.87;;
12675;SDS011;63820;65.654;21.944;2022-10-16T14:51:25;7.40;;;6.70;;
12675;SDS011;63820;65.654;21.944;2022-10-16T14:54:10;3.73;;;3.43;;
12675;SDS011;63820;65.654;21.944;2022-10-16T14:56:59;10.57;;;9.57;;
12675;SDS011;63820;65.654;21.944;2022-10-16T14:59:43;3.20;;;2.57;;
12675;SDS011;63820;65.654;21.944;2022-10-16T15:02:35;2.10;;;1.80;;
12675;SDS011;63820;65.654;21.944;2022-10-16T15:05:23;3.67;;;3.20;;
12675;SDS011;63820;65.654;21.944;2022-10-16T15:08:10;3.50;;;3.20;;
12675;SDS011;63820;65.654;21.944;2022-10-16T15:10:56;2.70;;;2.50;;
12675;SDS011;63820;65.654;21.944;2022-10-16T15:13:40;4.20;;;3.80;;
12675;SDS011;63820;65.654;21.944;2022-10-16T15:16:24;2.93;;;2.60;;
12675;SDS011;63820;65.654;21.944;2022-10-16T15:19:08;2.23;;;2.00;;
12675;SDS011;63820;65.654;21.944;2022-10-16T15:21:52;2.60;;;2.33;;
12675;SDS011;63820;65.654;21.944;2022-10-16T15:24:36;3.27;;;2.87;;
12675;SDS011;63820;65.654;21.944;2022-10-16T15:27:21;1.60;;;1.40;;
12675;SDS011;63820;65.654;21.944;2022-10-16T15:30:05;2.83;;;2.00;;
12675;SDS011;63820;65.654;21.944;2022-10-16T15:32:50;1.30;;;1.10;;
12675;SDS011;63820;65.654;21.944;2022-10-16T15:35:33;1.17;;;1.00;;
12675;SDS011;63820;65.654;21.944;2022-10-16T15:38:18;1.00;;;0.90;;
12675;SDS011;63820;65.654;21.944;2022-10-16T15:41:04;1.27;;;1.00;;
12675;SDS011;63820;65.654;21.944;2022-10-16T15:43:49;1.40;;;1.07;;
12675;SDS011;63820;65.654;21.944;2022-10-16T15:46:33;1.83;;;1.50;;
12675;SDS011;63820;65.654;21.944;2022-10-16T15:49:18;1.40;;;1.30;;
12675;SDS011;63820;65.654;21.944;2022-10-16T15:52:02;1.20;;;1.10;;
12675;SDS011;63820;65.654;21.944;2022-10-16T15:54:47;1.53;;;0.90;;
12675;SDS011;63820;65.654;21.944;2022-10-16T15:57:31;1.30;;;1.00;;
12675;SDS011;63820;65.654;21.944;2022-10-16T16:00:16;2.20;;;1.40;;
12675;SDS011;63820;65.654;21.944;2022-10-16T16:03:03;1.90;;;1.30;;
12675;SDS011;63820;65.654;21.944;2022-10-16T16:05:47;1.93;;;1.10;;
12675;SDS011;63820;65.654;21.944;2022-10-16T16:08:32;1.50;;;1.13;;
12675;SDS011;63820;65.654;21.944;2022-10-16T16:11:18;2.73;;;1.63;;
12675;SDS011;63820;65.654;21.944;2022-10-16T16:14:03;6.40;;;3.00;;
12675;SDS011;63820;65.654;21.944;2022-10-16T16:16:48;3.30;;;2.50;;
12675;SDS011;63820;65.654;21.944;2022-10-16T16:19:32;3.83;;;2.73;;
12675;SDS011;63820;65.654;21.944;2022-10-16T16:22:17;2.60;;;1.90;;
12675;SDS011;63820;65.654;21.944;2022-10-16T16:25:01;1.80;;;1.57;;
12675;SDS011;63820;65.654;21.944;2022-10-16T16:27:45;2.13;;;1.60;;
12675;SDS011;63820;65.654;21.944;2022-10-16T16:30:29;1.90;;;1.70;;
12675;SDS011;63820;65.654;21.944;2022-10-16T16:33:13;2.87;;;1.87;;
12675;SDS011;63820;65.654;21.944;2022-10-16T16:35:57;2.20;;;1.80;;
12675;SDS011;63820;65.654;21.944;2022-10-16T16:38:42;2.37;;;1.70;;
12675;SDS011;63820;65.654;21.944;2022-10-16T16:41:27;2.63;;;2.30;;
12675;SDS011;63820;65.654;21.944;2022-10-16T16:44:13;3.53;;;2.70;;
12675;SDS011;63820;65.654;21.944;2022-10-16T16:46:58;3.10;;;2.30;;
12675;SDS011;63820;65.654;21.944;2022-10-16T16:49:42;2.33;;;2.10;;
12675;SDS011;63820;65.654;21.944;2022-10-16T16:52:28;3.23;;;2.37;;
12675;SDS011;63820;65.654;21.944;2022-10-16T16:55:12;5.27;;;4.77;;
12675;SDS011;63820;65.654;21.944;2022-10-16T16:57:56;4.80;;;4.40;;
12675;SDS011;63820;65.654;21.944;2022-10-16T17:00:46;3.20;;;1.87;;
12675;SDS011;63820;65.654;21.944;2022-10-16T17:03:33;1.80;;;1.40;;
12675;SDS011;63820;65.654;21.944;2022-10-16T17:06:22;2.13;;;1.93;;
12675;SDS011;63820;65.654;21.944;2022-10-16T17:09:08;2.13;;;2.00;;
12675;SDS011;63820;65.654;21.944;2022-10-16T17:11:56;4.87;;;4.37;;
12675;SDS011;63820;65.654;21.944;2022-10-16T17:14:40;5.43;;;4.03;;
12675;SDS011;63820;65.654;21.944;2022-10-16T17:17:24;1.50;;;1.40;;
12675;SDS011;63820;65.654;21.944;2022-10-16T17:20:08;2.00;;;1.80;;
12675;SDS011;63820;65.654;21.944;2022-10-16T17:22:54;1.83;;;1.47;;
12675;SDS011;63820;65.654;21.944;2022-10-16T17:25:38;1.70;;;1.60;;
12675;SDS011;63820;65.654;21.944;2022-10-16T17:28:23;1.60;;;1.50;;
12675;SDS011;63820;65.654;21.944;2022-10-16T17:31:17;1.63;;;1.53;;
12675;SDS011;63820;65.654;21.944;2022-10-16T17:34:07;1.20;;;1.10;;
12675;SDS011;63820;65.654;21.944;2022-10-16T17:36:53;1.20;;;1.10;;
12675;SDS011;63820;65.654;21.944;2022-10-16T17:39:37;1.80;;;1.10;;
12675;SDS011;63820;65.654;21.944;2022-10-16T17:42:21;1.07;;;0.97;;
12675;SDS011;63820;65.654;21.944;2022-10-16T17:45:05;0.70;;;0.70;;
12675;SDS011;63820;65.654;21.944;2022-10-16T17:47:50;1.20;;;1.00;;
12675;SDS011;63820;65.654;21.944;2022-10-16T17:50:34;2.67;;;0.83;;
12675;SDS011;63820;65.654;21.944;2022-10-16T17:53:22;1.20;;;1.10;;
12675;SDS011;63820;65.654;21.944;2022-10-16T17:56:08;2.63;;;2.10;;
12675;SDS011;63820;65.654;21.944;2022-10-16T17:58:54;2.70;;;1.80;;
12675;SDS011;63820;65.654;21.944;2022-10-16T18:01:40;2.83;;;1.73;;
12675;SDS011;63820;65.654;21.944;2022-10-16T18:04:25;1.50;;;0.90;;
12675;SDS011;63820;65.654;21.944;2022-10-16T18:07:08;0.80;;;0.70;;
12675;SDS011;63820;65.654;21.944;2022-10-16T18:09:53;0.80;;;0.80;;
12675;SDS011;63820;65.654;21.944;2022-10-16T18:12:37;1.37;;;0.80;;